createdAt,value
2022-09-12T00:01:05.576Z,12.82
2022-09-12T00:04:14.350Z,12.82
2022-09-12T00:07:22.731Z,12.85
2022-09-12T00:10:31.000Z,12.84
2022-09-12T00:13:44.006Z,12.77
2022-09-12T00:16:52.406Z,12.78
2022-09-12T00:20:00.275Z,12.75
2022-09-12T00:23:08.945Z,12.70
2022-09-12T00:26:16.743Z,12.64
2022-09-12T00:29:25.166Z,12.59
2022-09-12T00:32:33.528Z,12.52
2022-09-12T00:35:41.331Z,12.54
2022-09-12T00:38:49.704Z,12.51
2022-09-12T00:41:57.966Z,12.51
2022-09-12T00:45:06.085Z,12.54
2022-09-12T00:48:14.670Z,12.51
2022-09-12T00:51:22.582Z,12.48
2022-09-12T00:54:31.244Z,12.44
2022-09-12T00:57:39.453Z,12.39
2022-09-12T01:00:47.894Z,12.33
2022-09-12T01:03:56.106Z,12.34
2022-09-12T01:07:04.015Z,12.34
2022-09-12T01:10:12.099Z,12.33
2022-09-12T01:13:20.318Z,12.31
2022-09-12T01:16:28.569Z,12.31
2022-09-12T01:19:36.710Z,12.37
2022-09-12T01:22:44.499Z,12.37
2022-09-12T01:25:53.048Z,12.33
2022-09-12T01:29:00.882Z,12.30
2022-09-12T01:32:09.613Z,12.31
2022-09-12T01:35:18.162Z,12.24
2022-09-12T01:38:25.942Z,12.13
2022-09-12T01:41:34.216Z,12.11
2022-09-12T01:44:42.911Z,12.04
2022-09-12T01:47:50.733Z,12.08
2022-09-12T01:50:59.287Z,12.11
2022-09-12T01:54:07.416Z,12.13
2022-09-12T01:57:15.651Z,12.12
2022-09-12T02:00:24.048Z,12.09
2022-09-12T02:03:32.158Z,12.04
2022-09-12T02:06:40.429Z,12.02
2022-09-12T02:09:48.633Z,12.01
2022-09-12T02:12:57.292Z,11.97
2022-09-12T02:16:05.465Z,11.90
2022-09-12T02:19:13.603Z,11.85
2022-09-12T02:22:22.044Z,11.85
2022-09-12T02:25:29.824Z,11.85
2022-09-12T02:28:37.849Z,11.83
2022-09-12T02:31:46.293Z,11.83
2022-09-12T02:34:53.953Z,11.78
2022-09-12T02:38:01.781Z,11.80
2022-09-12T02:41:09.857Z,11.77
2022-09-12T02:44:17.689Z,11.75
2022-09-12T02:47:26.365Z,11.71
2022-09-12T02:50:34.070Z,11.61
2022-09-12T02:53:42.580Z,11.57
2022-09-12T02:56:51.225Z,11.57
2022-09-12T02:59:59.493Z,11.56
2022-09-12T03:03:07.769Z,11.64
2022-09-12T03:06:16.054Z,11.75
2022-09-12T03:09:24.565Z,11.68
2022-09-12T03:12:32.282Z,11.68
2022-09-12T03:15:40.216Z,11.65
2022-09-12T03:18:48.018Z,11.57
2022-09-12T03:21:56.308Z,11.50
2022-09-12T03:25:04.123Z,11.43
2022-09-12T03:28:12.238Z,11.49
2022-09-12T03:31:20.409Z,11.49
2022-09-12T03:34:29.081Z,11.47
2022-09-12T03:37:37.200Z,11.44
2022-09-12T03:40:45.401Z,11.38
2022-09-12T03:43:53.977Z,11.36
2022-09-12T03:47:01.782Z,11.35
2022-09-12T03:50:10.454Z,11.41
2022-09-12T03:53:18.613Z,11.47
2022-09-12T03:56:26.476Z,11.38
2022-09-12T03:59:34.613Z,11.17
2022-09-12T04:02:42.671Z,11.09
2022-09-12T04:05:51.004Z,11.09
2022-09-12T04:08:59.337Z,11.06
2022-09-12T04:12:06.759Z,11.03
2022-09-12T04:15:14.850Z,11.06
2022-09-12T04:18:23.007Z,11.06
2022-09-12T04:21:30.559Z,11.07
2022-09-12T04:24:39.129Z,11.10
2022-09-12T04:27:47.624Z,11.02
2022-09-12T04:30:55.600Z,10.99
2022-09-12T04:34:04.231Z,11.03
2022-09-12T04:37:12.454Z,11.10
2022-09-12T04:40:20.927Z,11.09
2022-09-12T04:43:29.124Z,11.07
2022-09-12T04:46:37.876Z,11.02
2022-09-12T04:49:46.268Z,11.11
2022-09-12T04:52:54.444Z,11.20
2022-09-12T04:56:03.286Z,11.27
2022-09-12T04:59:11.238Z,11.14
2022-09-12T05:02:20.140Z,11.03
2022-09-12T05:05:28.797Z,11.07
2022-09-12T05:08:36.670Z,11.03
2022-09-12T05:14:51.093Z,11.10
2022-09-12T05:17:58.896Z,11.13
2022-09-12T05:21:07.394Z,11.19
2022-09-12T05:24:15.423Z,11.25
2022-09-12T05:27:23.253Z,11.28
2022-09-12T05:30:31.253Z,11.38
2022-09-12T05:33:39.867Z,11.50
2022-09-12T05:36:47.889Z,11.65
2022-09-12T05:39:56.218Z,11.62
2022-09-12T05:43:04.156Z,11.61
2022-09-12T05:46:12.661Z,11.64
2022-09-12T05:49:20.102Z,11.70
2022-09-12T05:52:28.059Z,11.77
2022-09-12T05:55:35.987Z,11.97
2022-09-12T05:58:44.273Z,12.16
2022-09-12T06:01:52.222Z,12.29
2022-09-12T06:05:00.123Z,12.44
2022-09-12T06:08:08.396Z,12.56
2022-09-12T06:11:16.528Z,12.64
2022-09-12T06:14:24.527Z,12.79
2022-09-12T06:17:32.978Z,12.92
2022-09-12T06:20:40.493Z,12.97
2022-09-12T06:23:48.848Z,13.04
2022-09-12T06:26:57.262Z,13.11
2022-09-12T06:30:04.748Z,13.17
2022-09-12T06:33:13.228Z,13.22
2022-09-12T06:36:21.690Z,13.33
2022-09-12T06:39:29.243Z,13.47
2022-09-12T06:42:37.552Z,13.61
2022-09-12T06:45:45.518Z,13.73
2022-09-12T06:48:53.579Z,13.79
2022-09-12T06:52:01.932Z,13.83
2022-09-12T06:55:09.793Z,13.88
2022-09-12T06:58:17.715Z,13.95
2022-09-12T07:01:26.194Z,14.01
2022-09-12T07:04:34.390Z,14.07
2022-09-12T07:07:42.257Z,14.16
2022-09-12T07:10:50.111Z,14.28
2022-09-12T07:13:58.541Z,14.37
2022-09-12T07:17:06.662Z,14.49
2022-09-12T07:20:14.401Z,14.56
2022-09-12T07:23:22.909Z,14.68
2022-09-12T07:26:30.862Z,14.83
2022-09-12T07:29:38.759Z,14.94
2022-09-12T07:32:47.234Z,15.09
2022-09-12T07:35:54.765Z,15.21
2022-09-12T07:39:03.225Z,15.35
2022-09-12T07:42:11.500Z,15.43
2022-09-12T07:45:19.496Z,15.56
2022-09-12T07:48:28.507Z,15.64
2022-09-12T07:51:36.928Z,15.76
2022-09-12T07:54:44.643Z,15.84
2022-09-12T07:57:52.571Z,15.97
2022-09-12T08:01:00.559Z,16.09
2022-09-12T08:04:08.521Z,16.27
2022-09-12T08:07:16.674Z,16.38
2022-09-12T08:10:24.864Z,16.48
2022-09-12T08:13:32.845Z,16.58
2022-09-12T08:16:41.401Z,16.70
2022-09-12T08:19:49.456Z,16.81
2022-09-12T08:22:57.503Z,16.89
2022-09-12T08:26:06.310Z,17.03
2022-09-12T08:29:14.982Z,17.23
2022-09-12T08:32:22.952Z,17.35
2022-09-12T08:35:31.061Z,17.48
2022-09-12T08:38:39.344Z,17.63
2022-09-12T08:41:46.820Z,17.70
2022-09-12T08:44:55.343Z,17.73
2022-09-12T08:48:03.726Z,17.89
2022-09-12T08:51:11.304Z,18.06
2022-09-12T08:54:19.657Z,18.18
2022-09-12T08:57:28.099Z,18.31
2022-09-12T09:00:36.400Z,18.39
2022-09-12T09:03:44.586Z,18.57
2022-09-12T09:06:52.411Z,18.62
2022-09-12T09:10:00.449Z,18.83
2022-09-12T09:13:08.714Z,18.91
2022-09-12T09:16:16.751Z,19.01
2022-09-12T09:19:24.671Z,19.14
2022-09-12T09:22:32.686Z,19.24
2022-09-12T09:25:41.167Z,19.38
2022-09-12T09:28:48.999Z,19.48
2022-09-12T09:31:57.063Z,19.60
2022-09-12T09:35:05.549Z,19.76
2022-09-12T09:38:13.221Z,19.93
2022-09-12T09:41:21.673Z,20.05
2022-09-12T09:44:30.162Z,20.05
2022-09-12T09:47:37.620Z,20.15
2022-09-12T09:50:45.974Z,20.16
2022-09-12T09:53:53.936Z,20.28
2022-09-12T09:57:01.843Z,20.47
2022-09-12T10:00:10.246Z,20.51
2022-09-12T10:03:18.299Z,20.71
2022-09-12T10:06:26.320Z,20.76
2022-09-12T10:09:34.501Z,20.99
2022-09-12T10:12:42.533Z,21.16
2022-09-12T10:15:50.627Z,21.36
2022-09-12T10:18:58.644Z,21.69
2022-09-12T10:22:06.945Z,21.76
2022-09-12T10:25:14.820Z,21.59
2022-09-12T10:28:22.596Z,21.50
2022-09-12T10:31:30.649Z,21.50
2022-09-12T10:34:38.359Z,21.60
2022-09-12T10:37:49.386Z,21.69
2022-09-12T10:40:49.315Z,21.72
2022-09-12T10:43:57.161Z,21.85
2022-09-12T10:47:06.975Z,22.12
2022-09-12T10:50:22.625Z,22.22
2022-09-12T10:53:20.544Z,22.31
2022-09-12T10:56:28.893Z,22.37
2022-09-12T10:59:36.594Z,22.34
2022-09-12T11:02:45.031Z,22.27
2022-09-12T11:05:53.181Z,22.17
2022-09-12T11:09:01.164Z,22.22
2022-09-12T11:12:09.594Z,22.31
2022-09-12T11:15:17.440Z,22.35
2022-09-12T11:18:25.543Z,22.43
2022-09-12T11:21:33.587Z,22.65
2022-09-12T11:24:41.859Z,22.53
2022-09-12T11:27:49.479Z,22.53
2022-09-12T11:30:57.942Z,22.69
2022-09-12T11:34:06.342Z,22.89
2022-09-12T11:37:17.801Z,23.09
2022-09-12T11:40:15.588Z,23.20
2022-09-12T11:43:23.531Z,23.23
2022-09-12T11:46:31.508Z,23.27
2022-09-12T11:49:39.778Z,23.26
2022-09-12T11:52:47.790Z,23.22
2022-09-12T11:55:55.768Z,23.17
2022-09-12T11:59:03.592Z,23.08
2022-09-12T12:02:11.663Z,23.09
2022-09-12T12:05:19.544Z,23.08
2022-09-12T12:08:27.695Z,23.14
2022-09-12T12:11:36.111Z,23.24
2022-09-12T12:14:43.709Z,23.11
2022-09-12T12:17:52.160Z,23.17
2022-09-12T12:21:00.480Z,23.19
2022-09-12T12:24:08.372Z,22.94
2022-09-12T12:27:16.983Z,22.99
2022-09-12T12:30:25.054Z,23.02
2022-09-12T12:33:33.085Z,22.92
2022-09-12T12:36:41.387Z,22.83
2022-09-12T12:39:49.438Z,23.04
2022-09-12T12:42:57.506Z,23.38
2022-09-12T12:46:05.800Z,23.49
2022-09-12T12:49:13.464Z,23.55
2022-09-12T12:52:21.802Z,23.65
2022-09-12T12:55:29.978Z,23.71
2022-09-12T12:58:38.395Z,23.65
2022-09-12T13:01:45.924Z,23.62
2022-09-12T13:04:54.360Z,23.72
2022-09-12T13:08:02.355Z,23.92
2022-09-12T13:11:10.229Z,24.10
2022-09-12T13:14:18.308Z,24.16
2022-09-12T13:17:26.016Z,24.12
2022-09-12T13:20:34.604Z,24.13
2022-09-12T13:23:43.143Z,24.19
2022-09-12T13:26:50.986Z,24.31
2022-09-12T13:29:59.838Z,24.22
2022-09-12T13:33:08.639Z,24.22
2022-09-12T13:36:16.740Z,24.24
2022-09-12T13:39:25.662Z,24.10
2022-09-12T13:42:33.963Z,23.89
2022-09-12T13:45:42.601Z,23.92
2022-09-12T13:48:51.556Z,24.05
2022-09-12T13:51:59.666Z,24.19
2022-09-12T13:55:07.928Z,24.34
2022-09-12T13:58:16.590Z,24.54
2022-09-12T14:01:24.913Z,24.73
2022-09-12T14:04:33.352Z,24.73
2022-09-12T14:07:41.753Z,24.61
2022-09-12T14:10:50.123Z,24.56
2022-09-12T14:13:58.656Z,24.63
2022-09-12T14:17:06.998Z,24.47
2022-09-12T14:20:15.456Z,24.35
2022-09-12T14:23:23.864Z,24.31
2022-09-12T14:26:32.231Z,24.41
2022-09-12T14:29:40.482Z,24.71
2022-09-12T14:32:49.135Z,24.91
2022-09-12T14:35:58.505Z,24.76
2022-09-12T14:39:07.028Z,24.49
2022-09-12T14:42:15.421Z,24.47
2022-09-12T14:45:24.008Z,24.45
2022-09-12T14:48:32.077Z,24.37
2022-09-12T14:51:40.961Z,24.50
2022-09-12T14:54:49.865Z,24.59
2022-09-12T14:57:58.533Z,24.53
2022-09-12T15:01:06.992Z,24.37
2022-09-12T15:04:15.766Z,24.07
2022-09-12T15:07:23.818Z,23.83
2022-09-12T15:10:32.527Z,23.57
2022-09-12T15:13:40.779Z,23.42
2022-09-12T15:16:48.810Z,23.32
2022-09-12T15:19:57.282Z,23.34
2022-09-12T15:23:05.031Z,23.29
2022-09-12T15:26:12.893Z,23.09
2022-09-12T15:29:21.428Z,22.92
2022-09-12T15:32:29.206Z,22.69
2022-09-12T15:35:38.038Z,22.49
2022-09-12T15:38:46.548Z,22.44
2022-09-12T15:41:54.850Z,22.46
2022-09-12T15:45:03.072Z,22.53
2022-09-12T15:48:10.872Z,22.65
2022-09-12T15:51:18.488Z,22.71
2022-09-12T15:54:26.315Z,22.69
2022-09-12T15:57:34.113Z,22.67
2022-09-12T16:00:41.815Z,22.68
2022-09-12T16:03:49.608Z,22.75
2022-09-12T16:06:57.290Z,22.84
2022-09-12T16:10:05.461Z,22.92
2022-09-12T16:13:12.911Z,22.94
2022-09-12T16:16:20.987Z,22.89
2022-09-12T16:19:29.460Z,22.64
2022-09-12T16:22:36.871Z,22.38
2022-09-12T16:25:45.026Z,21.99
2022-09-12T16:28:53.249Z,21.74
2022-09-12T16:32:00.590Z,21.57
2022-09-12T16:35:08.737Z,21.36
2022-09-12T16:38:16.679Z,21.20
2022-09-12T16:41:25.022Z,21.04
2022-09-12T16:44:33.712Z,20.98
2022-09-12T16:47:42.056Z,20.81
2022-09-12T16:50:50.468Z,20.74
2022-09-12T16:53:58.176Z,20.62
2022-09-12T16:57:06.028Z,20.51
2022-09-12T17:00:14.481Z,20.41
2022-09-12T17:03:22.182Z,20.24
2022-09-12T17:06:30.802Z,20.09
2022-09-12T17:09:38.903Z,19.94
2022-09-12T17:12:46.772Z,19.78
2022-09-12T17:15:55.250Z,19.61
2022-09-12T17:19:03.184Z,19.48
2022-09-12T17:22:11.340Z,19.42
2022-09-12T17:25:19.789Z,19.36
2022-09-12T17:28:27.390Z,19.18
2022-09-12T17:31:35.573Z,19.05
2022-09-12T17:34:43.689Z,18.87
2022-09-12T17:37:51.341Z,18.82
2022-09-12T17:41:00.170Z,18.72
2022-09-12T17:44:08.657Z,18.58
2022-09-12T17:47:16.520Z,18.44
2022-09-12T17:50:31.739Z,18.33
2022-09-12T17:53:28.686Z,18.22
2022-09-12T17:56:36.791Z,18.12
2022-09-12T17:59:45.802Z,18.02
2022-09-12T18:02:54.121Z,17.97
2022-09-12T18:06:02.486Z,17.89
2022-09-12T18:09:10.675Z,17.79
2022-09-12T18:12:19.609Z,17.78
2022-09-12T18:15:27.809Z,17.67
2022-09-12T18:18:36.159Z,17.55
2022-09-12T18:21:44.398Z,17.47
2022-09-12T18:24:52.998Z,17.48
2022-09-12T18:28:02.639Z,17.43
2022-09-12T18:31:02.401Z,17.44
2022-09-12T18:34:10.437Z,17.41
2022-09-12T18:37:18.838Z,17.41
2022-09-12T18:40:27.328Z,17.43
2022-09-12T18:43:35.879Z,17.40
2022-09-12T18:46:44.609Z,17.35
2022-09-12T18:49:52.307Z,17.29
2022-09-12T18:53:00.541Z,17.25
2022-09-12T18:56:08.816Z,17.23
2022-09-12T18:59:16.326Z,17.23
2022-09-12T19:02:24.669Z,17.23
2022-09-12T19:05:32.908Z,17.26
2022-09-12T19:08:41.207Z,17.25
2022-09-12T19:11:49.702Z,17.23
2022-09-12T19:14:57.687Z,17.26
2022-09-12T19:18:05.671Z,17.30
2022-09-12T19:21:13.776Z,17.33
2022-09-12T19:24:22.256Z,17.36
2022-09-12T19:27:29.958Z,17.35
2022-09-12T19:30:40.758Z,17.36
2022-09-12T19:33:42.012Z,17.36
2022-09-12T19:36:50.338Z,17.38
2022-09-12T19:39:57.990Z,17.38
2022-09-12T19:43:05.975Z,17.38
2022-09-12T19:46:13.936Z,17.38
2022-09-12T19:49:22.452Z,17.36
2022-09-12T19:52:30.983Z,17.32
2022-09-12T19:55:38.736Z,17.28
2022-09-12T19:58:49.072Z,17.25
2022-09-12T20:01:49.580Z,17.22
2022-09-12T20:04:57.767Z,17.17
2022-09-12T20:08:06.216Z,17.14
2022-09-12T20:11:14.358Z,17.13
2022-09-12T20:14:22.539Z,17.08
2022-09-12T20:17:30.731Z,17.00
2022-09-12T20:20:38.807Z,16.98
2022-09-12T20:23:46.613Z,16.90
2022-09-12T20:26:54.534Z,16.85
2022-09-12T20:30:03.116Z,16.80
2022-09-12T20:33:11.211Z,16.70
2022-09-12T20:36:19.386Z,16.63
2022-09-12T20:39:27.885Z,16.59
2022-09-12T20:42:36.067Z,16.53
2022-09-12T20:45:43.979Z,16.49
2022-09-12T20:48:52.186Z,16.44
2022-09-12T20:51:59.810Z,16.40
2022-09-12T20:55:08.022Z,16.38
2022-09-12T20:58:16.410Z,16.34
2022-09-12T21:01:24.154Z,16.33
2022-09-12T21:04:32.604Z,16.30
2022-09-12T21:07:40.397Z,16.26
2022-09-12T21:10:48.628Z,16.22
2022-09-12T21:13:57.218Z,16.15
2022-09-12T21:17:04.888Z,16.15
2022-09-12T21:20:13.199Z,16.12
2022-09-12T21:23:21.259Z,16.12
2022-09-12T21:26:29.395Z,16.07
2022-09-12T21:29:38.182Z,16.03
2022-09-12T21:32:46.187Z,15.97
2022-09-12T21:35:54.350Z,15.93
2022-09-12T21:39:02.574Z,15.88
2022-09-12T21:42:10.776Z,15.79
2022-09-12T21:45:18.733Z,15.75
2022-09-12T21:48:26.921Z,15.68
2022-09-12T21:51:35.436Z,15.67
2022-09-12T21:54:43.196Z,15.70
2022-09-12T21:57:50.817Z,15.74
2022-09-12T22:00:59.356Z,15.76
2022-09-12T22:04:07.055Z,15.78
2022-09-12T22:07:15.672Z,15.78
2022-09-12T22:10:23.632Z,15.78
2022-09-12T22:13:31.634Z,15.76
2022-09-12T22:16:39.463Z,15.75
2022-09-12T22:19:47.532Z,15.74
2022-09-12T22:22:55.925Z,15.72
2022-09-12T22:26:04.056Z,15.66
2022-09-12T22:29:11.818Z,15.64
2022-09-12T22:32:20.378Z,15.64
2022-09-12T22:35:28.527Z,15.61
2022-09-12T22:38:36.267Z,15.57
2022-09-12T22:41:43.982Z,15.52
2022-09-12T22:44:51.985Z,15.48
2022-09-12T22:48:01.109Z,15.48
2022-09-12T22:51:09.595Z,15.43
2022-09-12T22:54:17.394Z,15.39
2022-09-12T22:57:25.546Z,15.38
2022-09-12T23:00:33.234Z,15.33
2022-09-12T23:03:41.346Z,15.27
2022-09-12T23:06:49.412Z,15.24
2022-09-12T23:09:57.610Z,15.26
2022-09-12T23:13:05.809Z,15.23
2022-09-12T23:16:14.486Z,15.19
2022-09-12T23:19:22.112Z,15.17
2022-09-12T23:22:30.852Z,15.15
2022-09-12T23:25:38.920Z,15.11
2022-09-12T23:28:46.945Z,15.08
2022-09-12T23:31:55.195Z,15.11
2022-09-12T23:35:03.310Z,15.15
2022-09-12T23:38:14.509Z,15.17
2022-09-12T23:41:11.760Z,15.17
2022-09-12T23:44:20.302Z,15.12
2022-09-12T23:47:27.851Z,15.11
2022-09-12T23:50:35.822Z,15.09
2022-09-12T23:53:44.313Z,15.08
2022-09-12T23:56:51.972Z,15.09
